In Rescue
 
Open Full Screen Window  High Contrast Mode
Wind Gusting 00 knots
08
November 29, 2022 10:48 AM EST
Weather Information
Wind Direction
  130 °
Wind Speed
  08 kt (9 mph)
Wind Gust
  00 kt (0 mph)
Altimeter
29.84 in
Visibility
7 SM
Temperature
09° C
48° F
Dewpoint
05° C
41° F
Humidity
76%
Sky Condition
Overcast @ 3,700 ft
VFR

METAR KLWA 291548Z AUTO 13008KT 7SM OVC037 09/05 A2984 RMK AO2 T00850051

FAA Disclaimer: The data displayed is for advisory purposes only and is not to be used for flight planning or operations.